地図

経路データ

SID SEASON NUMBER BASIN SUBBASIN NAME ISO_TIME NATURE LAT LON WMO_WIND WMO_PRES WMO_AGENCY TRACK_TYPE DIST2LAND LANDFALL IFLAG USA_AGENCY USA_ATCF_ID USA_LAT USA_LON USA_RECORD USA_STATUS USA_WIND USA_PRES USA_SSHS USA_R34_NE USA_R34_SE USA_R34_SW USA_R34_NW USA_R50_NE USA_R50_SE USA_R50_SW USA_R50_NW USA_R64_NE USA_R64_SE USA_R64_SW USA_R64_NW USA_POCI USA_ROCI USA_RMW USA_EYE TOKYO_LAT TOKYO_LON TOKYO_GRADE TOKYO_WIND TOKYO_PRES TOKYO_R50_DIR TOKYO_R50_LONG TOKYO_R50_SHORT TOKYO_R30_DIR TOKYO_R30_LONG TOKYO_R30_SHORT TOKYO_LAND CMA_LAT CMA_LON CMA_CAT CMA_WIND CMA_PRES HKO_LAT HKO_LON HKO_CAT HKO_WIND HKO_PRES NEWDELHI_LAT NEWDELHI_LON NEWDELHI_GRADE NEWDELHI_WIND NEWDELHI_PRES NEWDELHI_CI NEWDELHI_DP NEWDELHI_POCI REUNION_LAT REUNION_LON REUNION_TYPE REUNION_WIND REUNION_PRES REUNION_TNUM REUNION_CI REUNION_RMW REUNION_R34_NE REUNION_R34_SE REUNION_R34_SW REUNION_R34_NW REUNION_R50_NE REUNION_R50_SE REUNION_R50_SW REUNION_R50_NW REUNION_R64_NE REUNION_R64_SE REUNION_R64_SW REUNION_R64_NW BOM_LAT BOM_LON BOM_TYPE BOM_WIND BOM_PRES BOM_TNUM BOM_CI BOM_RMW BOM_R34_NE BOM_R34_SE BOM_R34_SW BOM_R34_NW BOM_R50_NE BOM_R50_SE BOM_R50_SW BOM_R50_NW BOM_R64_NE BOM_R64_SE BOM_R64_SW BOM_R64_NW BOM_ROCI BOM_POCI BOM_EYE BOM_POS_METHOD BOM_PRES_METHOD NADI_LAT NADI_LON NADI_CAT NADI_WIND NADI_PRES WELLINGTON_LAT WELLINGTON_LON WELLINGTON_WIND WELLINGTON_PRES DS824_LAT DS824_LON DS824_STAGE DS824_WIND DS824_PRES TD9636_LAT TD9636_LON TD9636_STAGE TD9636_WIND TD9636_PRES TD9635_LAT TD9635_LON TD9635_WIND TD9635_PRES TD9635_ROCI NEUMANN_LAT NEUMANN_LON NEUMANN_CLASS NEUMANN_WIND NEUMANN_PRES MLC_LAT MLC_LON MLC_CLASS MLC_WIND MLC_PRES USA_GUST BOM_GUST BOM_GUST_PER REUNION_GUST REUNION_GUST_PER USA_SEAHGT USA_SEARAD_NE USA_SEARAD_SE USA_SEARAD_SW USA_SEARAD_NW STORM_SPEED STORM_DIR
1946042S21038 1946 12 SI MM NOT_NAMED 1946-02-10 18:00:00 TS -21.3000 38.0000 main 277 277 O________OO___ jtwc_sh SH121946 -21.3000 38.0000 -1 -21.3000 38.0000 TC -21.3000 38.0000 1 3 126
1946042S21038 1946 12 SI MM NOT_NAMED 1946-02-10 21:00:00 TS -21.3976 38.1480 main 282 282 P________PP___ SH121946 -21.3925 38.1400 -1 -21.3925 38.1400 TC -21.4079 38.1640 1 4 126
1946042S21038 1946 12 SI MM NOT_NAMED 1946-02-11 00:00:00 TS -21.5075 38.3108 main 299 299 O________OP___ jtwc_sh SH121946 -21.5000 38.3000 -1 -21.5000 38.3000 TC -21.5226 38.3324 1 4 127
1946042S21038 1946 12 SI MM NOT_NAMED 1946-02-11 03:00:00 TS -21.6403 38.4982 main 316 314 P________PP___ SH121946 -21.6350 38.4925 -1 -21.6350 38.4925 TC -21.6510 38.5097 1 5 129
1946042S21038 1946 12 SI MM NOT_NAMED 1946-02-11 06:00:00 TS -21.8000 38.7000 main 332 332 O________OO___ jtwc_sh SH121946 -21.8000 38.7000 -1 -21.8000 38.7000 TC 25 -21.8000 38.7000 1 5 133
1946042S21038 1946 12 SI MM NOT_NAMED 1946-02-11 09:00:00 TS -21.9864 38.8972 main 350 350 P________PP___ SH121946 -21.9924 38.8926 -1 -21.9924 38.8926 TC 25 -21.9743 38.9066 1 5 136
1946042S21038 1946 12 SI MM NOT_NAMED 1946-02-11 12:00:00 TS -22.1900 39.1092 main 367 367 O________OP___ jtwc_sh SH121946 -22.2000 39.1000 -1 -22.2000 39.1000 TC 25 -22.1699 39.1276 1 6 134
1946042S21038 1946 12 SI MM NOT_NAMED 1946-02-11 15:00:00 TS -22.3935 39.3483 main 383 371 P________PP___ SH121946 -22.4000 39.3425 -1 -22.4000 39.3425 TC 25 -22.3806 39.3598 1 6 132
1946042S21038 1946 12 SI MM NOT_NAMED 1946-02-11 18:00:00 TS -22.6000 39.6000 main 371 351 O________OO___ jtwc_sh SH121946 -22.6000 39.6000 -1 -22.6000 39.6000 TC 25 -22.6000 39.6000 1 6 132
1946042S21038 1946 12 SI MM NOT_NAMED 1946-02-11 21:00:00 TS -22.7995 39.8437 main 353 327 P________PP___ SH121946 -22.7925 39.8501 -1 -22.7925 39.8501 TC 25 -22.8135 39.8310 1 6 132
1946042S21038 1946 12 SI MM NOT_NAMED 1946-02-12 00:00:00 TS -23.0116 40.0902 main 327 313 O________OP___ jtwc_sh SH121946 -23.0000 40.1000 -1 -23.0000 40.1000 TC 25 -23.0347 40.0705 1 6 135
1946042S21038 1946 12 SI MM NOT_NAMED 1946-02-12 03:00:00 TS -23.2494 40.3367 main 313 296 P________PP___ SH121946 -23.2424 40.3426 -1 -23.2424 40.3426 TC 25 -23.2635 40.3248 1 7 136
1946042S21038 1946 12 SI MM NOT_NAMED 1946-02-12 06:00:00 TS -23.5000 40.6000 main 296 274 O________OO___ jtwc_sh SH121946 -23.5000 40.6000 -1 -23.5000 40.6000 TC 25 -23.5000 40.6000 1 7 135
1946042S21038 1946 12 SI MM NOT_NAMED 1946-02-12 09:00:00 TS -23.7543 40.8911 main 274 246 P________PP___ SH121946 -23.7499 40.8851 -1 -23.7499 40.8851 TC 25 -23.7631 40.9032 1 8 132
1946042S21038 1946 12 SI MM NOT_NAMED 1946-02-12 12:00:00 TS -24.0100 41.2090 main 246 220 O________OP___ jtwc_sh SH121946 -24.0000 41.2000 -1 -24.0000 41.2000 TC 25 -24.0300 41.2271 1 8 131
1946042S21038 1946 12 SI MM NOT_NAMED 1946-02-12 15:00:00 TS -24.2706 41.5491 main 223 187 P________PP___ SH121946 -24.2650 41.5425 -1 -24.2650 41.5425 TC 25 -24.2818 41.5625 1 8 128
1946042S21038 1946 12 SI MM NOT_NAMED 1946-02-12 18:00:00 TS -24.5000 41.9000 main 187 161 O________OO___ jtwc_sh SH121946 -24.5000 41.9000 -1 -24.5000 41.9000 TC 25 -24.5000 41.9000 1 8 121
1946042S21038 1946 12 SI MM NOT_NAMED 1946-02-12 21:00:00 TS -24.6605 42.2551 main 151 123 P________PP___ SH121946 -24.6725 42.2576 -1 -24.6725 42.2576 TC 25 -24.6367 42.2502 1 7 114
1946042S21038 1946 12 SI MM NOT_NAMED 1946-02-13 00:00:00 TS -24.7809 42.5987 main 123 93 O________OP___ jtwc_sh SH121946 -24.8000 42.6000 -1 -24.8000 42.6000 TC 25 -24.7427 42.5960 1 6 109
1946042S21038 1946 12 SI MM NOT_NAMED 1946-02-13 03:00:00 TS -24.8691 42.9214 main 96 75 P________PP___ SH121946 -24.8775 42.9228 -1 -24.8775 42.9228 TC 25 -24.8523 42.9188 1 6 112
1946042S21038 1946 12 SI MM NOT_NAMED 1946-02-13 06:00:00 TS -25.0000 43.2000 main 75 64 O________OO___ jtwc_sh SH121946 -25.0000 43.2000 -1 -25.0000 43.2000 TC 25 -25.0000 43.2000 1 6 132
1946042S21038 1946 12 SI MM NOT_NAMED 1946-02-13 09:00:00 TS -25.2702 43.4210 main 69 60 P________PP___ SH121946 -25.2774 43.4224 -1 -25.2774 43.4224 TC 25 -25.2558 43.4181 1 7 148
1946042S21038 1946 12 SI MM NOT_NAMED 1946-02-13 12:00:00 TS -25.5832 43.5983 main 78 78 O________OP___ jtwc_sh SH121946 -25.6000 43.6000 -1 -25.6000 43.6000 TC 25 -25.5495 43.5949 1 7 153
1946042S21038 1946 12 SI MM NOT_NAMED 1946-02-13 15:00:00 TS -25.8678 43.7548 main 90 90 P________PP___ SH121946 -25.8800 43.7576 -1 -25.8800 43.7576 TC 25 -25.8434 43.7493 1 6 152
1946042S21038 1946 12 SI MM NOT_NAMED 1946-02-13 18:00:00 TS -26.1000 43.9000 main 102 102 O________OO___ jtwc_sh SH121946 -26.1000 43.9000 -1 -26.1000 43.9000 TC 25 -26.1000 43.9000 1 5 143
1946042S21038 1946 12 SI MM NOT_NAMED 1946-02-13 21:00:00 TS -26.2299 44.0523 main 104 104 P________PP___ SH121946 -26.2150 44.0427 -1 -26.2150 44.0427 TC 25 -26.2599 44.0715 1 4 129
1946042S21038 1946 12 SI MM NOT_NAMED 1946-02-14 00:00:00 TS -26.3266 44.2144 main 113 113 O________OP___ jtwc_sh SH121946 -26.3000 44.2000 -1 -26.3000 44.2000 TC 25 -26.3798 44.2432 1 4 126
1946042S21038 1946 12 SI MM NOT_NAMED 1946-02-14 03:00:00 TS -26.4566 44.4011 main 126 122 P________PP___ SH121946 -26.4425 44.3925 -1 -26.4425 44.3925 TC 25 -26.4849 44.4183 1 4 128
1946042S21038 1946 12 SI MM NOT_NAMED 1946-02-14 06:00:00 TS -26.6000 44.6000 main 126 122 O________OO___ jtwc_sh SH121946 -26.6000 44.6000 -1 -26.6000 44.6000 TC 25 -26.6000 44.6000 1 5 130
1946042S21038 1946 12 SI MM NOT_NAMED 1946-02-14 09:00:00 TS -26.7512 44.7990 main 139 137 P________PP___ SH121946 -26.7425 44.8001 -1 -26.7425 44.8001 TC 25 -26.7688 44.7968 1 5 132
1946042S21038 1946 12 SI MM NOT_NAMED 1946-02-14 12:00:00 TS -26.9167 44.9999 main 146 146 O________OP___ jtwc_sh SH121946 -26.9000 45.0000 -1 -26.9000 45.0000 TC 25 -26.9500 44.9998 1 5 135
1946042S21038 1946 12 SI MM NOT_NAMED 1946-02-14 15:00:00 TS -27.1154 45.2060 main 167 167 P________PP___ SH121946 -27.1075 45.2074 -1 -27.1075 45.2074 TC 25 -27.1313 45.2030 1 5 137
1946042S21038 1946 12 SI MM NOT_NAMED 1946-02-14 18:00:00 TS -27.3000 45.4000 main 189 189 O________OO___ jtwc_sh SH121946 -27.3000 45.4000 -1 -27.3000 45.4000 TC 25 -27.3000 45.4000 1 4 132
1946042S21038 1946 12 SI MM NOT_NAMED 1946-02-14 21:00:00 TS -27.4031 45.5598 main 201 201 P________PP___ SH121946 -27.4074 45.5502 -1 -27.4074 45.5502 TC 25 -27.3945 45.5790 1 3 125
1946042S21038 1946 12 SI MM NOT_NAMED 1946-02-15 00:00:00 TS -27.4941 45.7171 main 213 213 O________OP___ jtwc_sh SH121946 -27.5000 45.7000 -1 -27.5000 45.7000 TC 25 -27.4823 45.7513 1 4 124
1946042S21038 1946 12 SI MM NOT_NAMED 1946-02-15 03:00:00 TS -27.6046 45.9028 main 226 226 P________PP___ SH121946 -27.6050 45.8927 -1 -27.6050 45.8927 TC 25 -27.6039 45.9229 1 5 132
1946042S21038 1946 12 SI MM NOT_NAMED 1946-02-15 06:00:00 TS -27.8000 46.1000 main 252 252 O________OO___ jtwc_sh SH121946 -27.8000 46.1000 -1 -27.8000 46.1000 TC 25 -27.8000 46.1000 1 7 147
1946042S21038 1946 12 SI MM NOT_NAMED 1946-02-15 09:00:00 TS -28.1513 46.2987 main 300 300 P________PP___ SH121946 -28.1625 46.2999 -1 -28.1625 46.2999 TC 25 -28.1291 46.2963 1 9 156
1946042S21038 1946 12 SI MM NOT_NAMED 1946-02-15 12:00:00 TS -28.5775 46.4998 main 349 349 O________OP___ jtwc_sh SH121946 -28.6000 46.5000 -1 -28.6000 46.5000 TC 25 -28.5326 46.4993 1 9 157
1946042S21038 1946 12 SI MM NOT_NAMED 1946-02-15 15:00:00 TS -28.9949 46.7059 main 397 397 P________PP___ SH121946 -29.0075 46.7075 -1 -29.0075 46.7075 TC 25 -28.9697 46.7027 1 9 157
1946042S21038 1946 12 SI MM NOT_NAMED 1946-02-15 18:00:00 TS -29.4000 46.9000 main 446 446 O________OO___ jtwc_sh SH121946 -29.4000 46.9000 -1 -29.4000 46.9000 TC 25 -29.4000 46.9000 1 8 158
1946042S21038 1946 12 SI MM NOT_NAMED 1946-02-15 21:00:00 TS -29.7569 47.0506 main 494 494 P________PP___ SH121946 -29.7574 47.0503 -1 -29.7574 47.0503 TC 25 -29.7557 47.0513 1 7 160
1946042S21038 1946 12 SI MM NOT_NAMED 1946-02-16 00:00:00 TS -30.0997 47.2000 main 529 529 O________OP___ jtwc_sh SH121946 -30.1000 47.2000 -1 -30.1000 47.2000 TC 25 -30.0992 47.1999 1 7 158
1946042S21038 1946 12 SI MM NOT_NAMED 1946-02-16 03:00:00 TS -30.4426 47.3764 main 567 567 P________PP___ SH121946 -30.4424 47.3778 -1 -30.4424 47.3778 TC 25 -30.4431 47.3735 1 8 154
1946042S21038 1946 12 SI MM NOT_NAMED 1946-02-16 06:00:00 TS -30.8000 47.6000 main 615 615 O________OO___ jtwc_sh SH121946 -30.8000 47.6000 -1 -30.8000 47.6000 TC 25 -30.8000 47.6000 1 9 150
1946042S21038 1946 12 SI MM NOT_NAMED 1946-02-16 09:00:00 TS -31.1879 47.8753 main 667 667 P________PP___ SH121946 -31.1923 47.8628 -1 -31.1923 47.8628 TC 25 -31.1791 47.9002 1 10 146
1946042S21038 1946 12 SI MM NOT_NAMED 1946-02-16 12:00:00 TS -31.5922 48.2210 main 719 719 O________OP___ jtwc_sh SH121946 -31.6000 48.2000 -1 -31.6000 48.2000 TC 25 -31.5767 48.2631 1 10 141
1946042S21038 1946 12 SI MM NOT_NAMED 1946-02-16 15:00:00 TS -31.9973 48.6393 main 775 775 P________PP___ SH121946 -32.0029 48.6241 -1 -32.0029 48.6241 TC 25 -31.9859 48.6696 1 11 137
1946042S21038 1946 12 SI MM NOT_NAMED 1946-02-16 18:00:00 TS -32.4000 49.1000 main 834 O________OO___ jtwc_sh SH121946 -32.4000 49.1000 -1 -32.4000 49.1000 TC 25 -32.4000 49.1000 7 11 136

IBTrACS Databaseについて

本データベースは、米国NOAAが公開する1842年以降の世界の熱帯低気圧のベストトラックデータアーカイブInternational Best Track Archive for Climate Stewardship (IBTrACS)を、ウェブで閲覧しやすい形式に変換したものです。

最終更新日:2021-10-08